createdAt,value
2023-08-12T00:00:42.135Z,7.47
2023-08-12T00:02:46.449Z,6.68
2023-08-12T00:04:49.665Z,7.38
2023-08-12T00:06:52.356Z,6.72
2023-08-12T00:08:54.961Z,7.78
2023-08-12T00:10:57.498Z,7.45
2023-08-12T00:13:01.006Z,7.32
2023-08-12T00:15:06.081Z,7.80
2023-08-12T00:17:08.761Z,6.80
2023-08-12T00:19:13.512Z,6.00
2023-08-12T00:21:16.447Z,6.80
2023-08-12T00:23:19.499Z,8.15
2023-08-12T00:25:22.264Z,7.18
2023-08-12T00:27:24.843Z,6.32
2023-08-12T00:29:27.624Z,6.53
2023-08-12T00:31:30.483Z,6.30
2023-08-12T00:33:33.488Z,5.78
2023-08-12T00:35:36.481Z,6.43
2023-08-12T00:37:39.189Z,6.25
2023-08-12T00:39:42.300Z,6.50
2023-08-12T00:41:45.035Z,6.20
2023-08-12T00:43:47.723Z,6.43
2023-08-12T00:45:51.995Z,6.93
2023-08-12T00:47:55.406Z,5.82
2023-08-12T00:49:59.867Z,6.55
2023-08-12T00:52:03.313Z,7.07
2023-08-12T00:54:08.168Z,8.20
2023-08-12T00:56:12.265Z,6.30
2023-08-12T00:58:15.564Z,7.03
2023-08-12T01:00:19.025Z,6.65
2023-08-12T01:02:21.778Z,8.57
2023-08-12T01:04:24.946Z,7.60
2023-08-12T01:06:28.456Z,7.63
2023-08-12T01:08:33.420Z,7.40
2023-08-12T01:10:40.719Z,7.95
2023-08-12T01:13:05.463Z,8.68
2023-08-12T01:15:17.731Z,8.55
2023-08-12T01:17:21.266Z,8.75
2023-08-12T01:19:35.191Z,8.40
2023-08-12T01:21:43.679Z,6.82
2023-08-12T01:23:47.521Z,7.28
2023-08-12T01:25:50.268Z,8.43
2023-08-12T01:27:53.180Z,6.82
2023-08-12T01:29:56.417Z,7.13
2023-08-12T01:32:20.590Z,5.97
2023-08-12T01:34:50.715Z,5.75
2023-08-12T01:36:59.071Z,5.90
2023-08-12T01:39:05.012Z,6.55
2023-08-12T01:41:11.035Z,7.22
2023-08-12T01:43:14.689Z,7.05
2023-08-12T01:45:21.203Z,6.40
2023-08-12T01:47:23.787Z,7.63
2023-08-12T01:49:26.526Z,7.90
2023-08-12T01:51:30.597Z,8.60
2023-08-12T01:53:33.165Z,7.68
2023-08-12T01:55:36.486Z,9.15
2023-08-12T01:57:39.300Z,6.70
2023-08-12T01:59:43.005Z,7.65
2023-08-12T02:01:47.332Z,7.28
2023-08-12T02:03:50.353Z,6.55
2023-08-12T02:05:53.586Z,6.30
2023-08-12T02:07:56.434Z,7.57
2023-08-12T02:09:59.394Z,7.03
2023-08-12T02:12:02.120Z,8.35
2023-08-12T02:14:04.961Z,7.80
2023-08-12T02:16:08.312Z,6.90
2023-08-12T02:18:11.142Z,8.18
2023-08-12T02:20:13.773Z,7.40
2023-08-12T02:22:16.547Z,11.15
2023-08-12T02:24:19.199Z,9.25
2023-08-12T02:26:22.612Z,8.50
2023-08-12T02:28:25.754Z,7.60
2023-08-12T02:30:30.651Z,7.35
2023-08-12T02:32:34.347Z,7.28
2023-08-12T02:34:37.446Z,8.43
2023-08-12T02:36:40.957Z,8.45
2023-08-12T02:38:43.491Z,9.05
2023-08-12T02:40:49.632Z,9.10
2023-08-12T02:42:52.069Z,7.78
2023-08-12T02:44:55.024Z,8.98
2023-08-12T02:46:57.786Z,7.05
2023-08-12T02:49:00.357Z,7.85
2023-08-12T02:51:06.151Z,8.98
2023-08-12T02:53:09.586Z,9.60
2023-08-12T02:55:13.095Z,9.05
2023-08-12T02:57:16.062Z,7.25
2023-08-12T02:59:19.151Z,7.93
2023-08-12T03:01:23.103Z,7.38
2023-08-12T03:03:25.940Z,8.57
2023-08-12T03:05:28.942Z,8.43
2023-08-12T03:07:32.014Z,7.55
2023-08-12T03:09:34.825Z,9.90
2023-08-12T03:11:37.409Z,9.23
2023-08-12T03:13:43.119Z,8.45
2023-08-12T03:15:46.180Z,8.45
2023-08-12T03:17:49.887Z,9.93
2023-08-12T03:19:53.102Z,9.90
2023-08-12T03:21:55.688Z,7.93
2023-08-12T03:23:59.459Z,9.82
2023-08-12T03:26:02.022Z,10.93
2023-08-12T03:28:05.585Z,12.45
2023-08-12T03:30:11.013Z,10.90
2023-08-12T03:32:13.835Z,11.75
2023-08-12T03:34:16.381Z,10.18
2023-08-12T03:36:20.281Z,9.45
2023-08-12T03:38:25.010Z,14.27
2023-08-12T03:40:27.752Z,11.10
2023-08-12T03:42:31.594Z,12.75
2023-08-12T03:44:36.072Z,12.18
2023-08-12T03:46:38.810Z,11.55
2023-08-12T03:48:42.333Z,11.80
2023-08-12T03:50:47.182Z,12.32
2023-08-12T03:52:50.199Z,13.80
2023-08-12T03:54:54.711Z,9.82
2023-08-12T03:56:58.363Z,9.57
2023-08-12T03:59:01.687Z,10.73
2023-08-12T04:01:04.621Z,10.68
2023-08-12T04:03:07.930Z,10.23
2023-08-12T04:05:10.791Z,10.23
2023-08-12T04:07:13.880Z,10.70
2023-08-12T04:09:18.628Z,12.50
2023-08-12T04:11:21.722Z,11.90
2023-08-12T04:13:24.455Z,10.93
2023-08-12T04:15:28.253Z,11.98
2023-08-12T04:17:31.740Z,14.00
2023-08-12T04:19:34.535Z,14.27
2023-08-12T04:21:39.886Z,12.80
2023-08-12T04:23:43.057Z,11.73
2023-08-12T04:25:46.820Z,16.52
2023-08-12T04:27:51.502Z,13.07
2023-08-12T04:29:54.638Z,12.93
2023-08-12T04:31:57.923Z,16.40
2023-08-12T04:34:00.717Z,16.17
2023-08-12T04:36:04.574Z,13.05
2023-08-12T04:38:08.215Z,14.98
2023-08-12T04:40:13.020Z,15.02
2023-08-12T04:42:16.932Z,15.02
2023-08-12T04:44:21.529Z,14.75
2023-08-12T04:46:24.501Z,13.07
2023-08-12T04:48:28.053Z,14.80
2023-08-12T04:50:32.706Z,15.00
2023-08-12T04:52:35.374Z,16.20
2023-08-12T04:54:38.032Z,13.57
2023-08-12T04:56:40.492Z,14.18
2023-08-12T04:58:43.498Z,14.95
2023-08-12T05:00:47.574Z,14.57
2023-08-12T05:02:51.195Z,13.95
2023-08-12T05:04:54.252Z,17.92
2023-08-12T05:06:58.095Z,13.98
2023-08-12T05:09:01.750Z,17.38
2023-08-12T05:11:05.757Z,18.27
2023-08-12T05:13:08.544Z,17.13
2023-08-12T05:15:12.601Z,13.98
2023-08-12T05:17:15.690Z,13.32
2023-08-12T05:19:18.931Z,15.50
2023-08-12T05:21:21.494Z,15.27
2023-08-12T05:23:23.969Z,15.40
2023-08-12T05:25:27.376Z,15.90
2023-08-12T05:27:30.039Z,16.00
2023-08-12T05:29:32.746Z,14.80
2023-08-12T05:31:35.411Z,14.05
2023-08-12T05:33:38.216Z,14.73
2023-08-12T05:35:40.791Z,13.50
2023-08-12T05:37:43.759Z,12.35
2023-08-12T05:39:46.321Z,14.80
2023-08-12T05:41:49.584Z,14.68
2023-08-12T05:43:52.208Z,13.57
2023-08-12T05:45:55.267Z,13.52
2023-08-12T05:47:58.857Z,14.13
2023-08-12T05:50:01.693Z,15.13
2023-08-12T05:52:05.053Z,12.70
2023-08-12T05:54:08.963Z,13.90
2023-08-12T05:56:11.621Z,11.60
2023-08-12T05:58:14.132Z,12.68
2023-08-12T06:00:16.689Z,14.60
2023-08-12T06:02:20.414Z,11.00
2023-08-12T06:04:23.206Z,11.30
2023-08-12T06:06:26.178Z,10.77
2023-08-12T06:08:28.979Z,11.90
2023-08-12T06:10:31.448Z,10.35
2023-08-12T06:12:34.300Z,11.65
2023-08-12T06:14:40.427Z,12.38
2023-08-12T06:16:43.686Z,14.88
2023-08-12T06:18:46.951Z,11.10
2023-08-12T06:20:50.088Z,11.48
2023-08-12T06:22:54.037Z,11.35
2023-08-12T06:24:56.807Z,11.75
2023-08-12T06:26:59.572Z,12.45
2023-08-12T06:29:05.701Z,10.57
2023-08-12T06:33:12.344Z,13.38
2023-08-12T06:35:15.136Z,10.20
2023-08-12T06:37:17.813Z,9.98
2023-08-12T06:39:20.458Z,10.90
2023-08-12T06:41:23.446Z,10.50
2023-08-12T06:43:28.446Z,9.73
2023-08-12T06:45:32.404Z,11.27
2023-08-12T06:47:36.067Z,11.23
2023-08-12T06:49:38.866Z,9.23
2023-08-12T06:51:42.002Z,8.77
2023-08-12T06:53:45.602Z,10.30
2023-08-12T06:55:48.281Z,9.95
2023-08-12T06:57:51.482Z,9.85
2023-08-12T06:59:54.610Z,9.80
2023-08-12T07:01:57.540Z,10.80
2023-08-12T07:04:00.640Z,9.77
2023-08-12T07:06:03.682Z,8.95
2023-08-12T07:08:07.327Z,7.60
2023-08-12T07:10:10.760Z,9.07
2023-08-12T07:12:13.810Z,9.90
2023-08-12T07:14:16.754Z,8.35
2023-08-12T07:16:19.721Z,9.00
2023-08-12T07:18:24.304Z,9.00
2023-08-12T07:20:27.113Z,9.27
2023-08-12T07:22:30.022Z,9.20
2023-08-12T07:24:32.657Z,8.25
2023-08-12T07:26:35.626Z,7.82
2023-08-12T07:28:38.628Z,9.70
2023-08-12T07:30:41.419Z,7.97
2023-08-12T07:32:43.961Z,9.77
2023-08-12T07:34:47.057Z,9.25
2023-08-12T07:36:50.191Z,8.45
2023-08-12T07:38:52.981Z,7.82
2023-08-12T07:40:56.506Z,7.57
2023-08-12T07:42:59.543Z,8.13
2023-08-12T07:45:02.124Z,7.15
2023-08-12T07:47:06.581Z,9.82
2023-08-12T07:49:09.812Z,7.43
2023-08-12T07:51:13.145Z,8.45
2023-08-12T07:53:17.333Z,8.15
2023-08-12T07:55:21.024Z,8.23
2023-08-12T07:57:25.540Z,8.30
2023-08-12T07:59:28.102Z,6.88
2023-08-12T08:01:30.780Z,6.88
2023-08-12T08:03:33.579Z,6.60
2023-08-12T08:05:36.959Z,7.78
2023-08-12T08:07:39.906Z,6.93
2023-08-12T08:09:42.509Z,6.82
2023-08-12T08:11:45.428Z,7.30
2023-08-12T08:13:48.544Z,6.03
2023-08-12T08:15:51.423Z,6.45
2023-08-12T08:17:55.167Z,6.82
2023-08-12T08:19:58.424Z,5.97
2023-08-12T08:22:01.461Z,6.00
2023-08-12T08:24:04.363Z,7.53
2023-08-12T08:26:07.418Z,8.93
2023-08-12T08:28:10.408Z,7.78
2023-08-12T08:30:13.569Z,5.70
2023-08-12T08:32:18.913Z,5.70
2023-08-12T08:34:21.706Z,6.10
2023-08-12T08:36:24.662Z,7.72
2023-08-12T08:38:27.306Z,6.93
2023-08-12T08:40:30.145Z,6.35
2023-08-12T08:42:33.300Z,6.32
2023-08-12T08:44:37.021Z,7.47
2023-08-12T08:46:39.800Z,6.53
2023-08-12T08:48:48.579Z,5.38
2023-08-12T08:50:53.713Z,5.78
2023-08-12T08:52:58.495Z,6.15
2023-08-12T08:55:04.242Z,5.63
2023-08-12T08:57:20.340Z,6.20
2023-08-12T08:59:25.999Z,5.88
2023-08-12T09:01:30.693Z,4.93
2023-08-12T09:03:39.933Z,5.55
2023-08-12T09:05:44.299Z,5.20
2023-08-12T09:07:48.001Z,7.03
2023-08-12T09:09:54.241Z,5.55
2023-08-12T09:11:57.190Z,4.75
2023-08-12T09:14:00.138Z,6.30
2023-08-12T09:16:03.525Z,6.10
2023-08-12T09:18:08.026Z,5.03
2023-08-12T09:20:13.807Z,5.63
2023-08-12T09:22:16.989Z,5.38
2023-08-12T09:24:29.089Z,4.95
2023-08-12T09:26:32.039Z,5.68
2023-08-12T09:28:38.737Z,5.03
2023-08-12T09:30:42.621Z,6.38
2023-08-12T09:33:01.167Z,6.22
2023-08-12T09:35:05.316Z,8.13
2023-08-12T09:37:08.844Z,5.47
2023-08-12T09:39:12.150Z,5.28
2023-08-12T09:41:15.942Z,6.00
2023-08-12T09:43:18.566Z,5.35
2023-08-12T09:45:26.225Z,4.97
2023-08-12T09:47:29.522Z,4.75
2023-08-12T09:49:32.345Z,8.13
2023-08-12T09:51:38.443Z,6.90
2023-08-12T09:53:43.477Z,5.65
2023-08-12T09:55:50.872Z,4.90
2023-08-12T09:57:55.440Z,4.63
2023-08-12T09:59:59.799Z,6.07
2023-08-12T10:02:10.648Z,8.10
2023-08-12T10:04:18.784Z,6.30
2023-08-12T10:06:22.749Z,5.25
2023-08-12T10:08:26.939Z,5.18
2023-08-12T10:10:31.937Z,5.03
2023-08-12T10:12:36.493Z,4.22
2023-08-12T10:14:40.372Z,6.85
2023-08-12T10:16:48.790Z,4.68
2023-08-12T10:18:52.951Z,6.07
2023-08-12T10:20:59.479Z,5.75
2023-08-12T10:23:03.504Z,4.90
2023-08-12T10:25:09.701Z,5.32
2023-08-12T10:27:14.542Z,6.22
2023-08-12T10:29:17.585Z,5.50
2023-08-12T10:31:21.908Z,4.88
2023-08-12T10:33:24.918Z,4.95
2023-08-12T10:35:43.520Z,4.60
2023-08-12T10:37:52.172Z,4.68
2023-08-12T10:39:55.985Z,4.82
2023-08-12T10:42:00.075Z,4.38
2023-08-12T10:44:06.493Z,6.03
2023-08-12T10:46:23.798Z,5.35
2023-08-12T10:48:27.621Z,6.45
2023-08-12T10:50:32.780Z,5.13
2023-08-12T10:52:36.525Z,4.07
2023-08-12T10:54:39.871Z,5.93
2023-08-12T10:57:04.311Z,5.20
2023-08-12T10:59:07.154Z,5.80
2023-08-12T11:01:19.045Z,4.35
2023-08-12T11:03:22.700Z,5.15
2023-08-12T11:05:26.537Z,3.97
2023-08-12T11:08:02.682Z,5.10
2023-08-12T11:10:15.442Z,5.85
2023-08-12T11:12:35.031Z,4.20
2023-08-12T11:14:54.882Z,4.55
2023-08-12T11:16:57.834Z,4.30
2023-08-12T11:19:00.962Z,4.45
2023-08-12T11:21:05.242Z,3.63
2023-08-12T11:23:09.804Z,3.88
2023-08-12T11:25:14.830Z,3.40
2023-08-12T11:27:19.700Z,3.45
2023-08-12T11:29:25.489Z,3.30
2023-08-12T11:31:28.975Z,4.03
2023-08-12T11:35:37.948Z,2.90
2023-08-12T11:37:43.248Z,2.40
2023-08-12T11:39:47.213Z,4.55
2023-08-12T11:41:51.892Z,3.70
2023-08-12T11:43:54.618Z,3.90
2023-08-12T11:45:58.256Z,3.78
2023-08-12T11:48:01.309Z,3.70
2023-08-12T11:50:09.649Z,4.45
2023-08-12T11:52:13.893Z,3.28
2023-08-12T11:54:17.510Z,2.95
2023-08-12T11:56:21.949Z,3.17
2023-08-12T11:58:25.381Z,4.45
2023-08-12T12:00:28.973Z,3.30
2023-08-12T12:02:31.722Z,4.47
2023-08-12T12:04:36.398Z,4.95
2023-08-12T12:06:39.834Z,3.95
2023-08-12T12:08:42.969Z,3.15
2023-08-12T12:10:45.614Z,3.00
2023-08-12T12:12:48.516Z,4.45
2023-08-12T12:14:54.528Z,4.03
2023-08-12T12:16:57.371Z,3.55
2023-08-12T12:19:00.697Z,4.72
2023-08-12T12:21:03.563Z,3.60
2023-08-12T12:23:09.732Z,4.47
2023-08-12T12:25:15.159Z,5.47
2023-08-12T12:27:17.720Z,4.32
2023-08-12T12:29:21.956Z,2.97
2023-08-12T12:31:24.678Z,5.60
2023-08-12T12:33:27.457Z,2.85
2023-08-12T12:37:33.713Z,2.95
2023-08-12T12:39:36.638Z,2.92
2023-08-12T12:41:39.387Z,4.13
2023-08-12T12:43:42.430Z,4.82
2023-08-12T12:45:45.534Z,3.08
2023-08-12T12:47:49.114Z,4.18
2023-08-12T12:49:52.774Z,2.85
2023-08-12T12:51:55.973Z,2.55
2023-08-12T12:53:58.594Z,4.93
2023-08-12T12:56:05.835Z,3.50
2023-08-12T12:58:10.543Z,3.10
2023-08-12T13:00:15.916Z,3.42
2023-08-12T13:02:18.979Z,3.83
2023-08-12T13:04:21.583Z,3.42
2023-08-12T13:06:24.513Z,4.20
2023-08-12T13:08:27.320Z,4.60
2023-08-12T13:10:30.602Z,3.38
2023-08-12T13:12:33.194Z,3.80
2023-08-12T13:14:36.162Z,3.45
2023-08-12T13:16:39.093Z,5.55
2023-08-12T13:18:41.836Z,4.53
2023-08-12T13:20:44.818Z,5.00
2023-08-12T13:22:47.887Z,4.75
2023-08-12T13:24:50.638Z,4.25
2023-08-12T13:26:57.024Z,3.30
2023-08-12T13:29:01.614Z,2.92
2023-08-12T13:31:04.710Z,3.90
2023-08-12T13:33:07.447Z,3.83
2023-08-12T13:35:10.628Z,3.85
2023-08-12T13:37:14.180Z,3.70
2023-08-12T13:39:17.202Z,4.78
2023-08-12T13:41:19.769Z,3.80
2023-08-12T13:43:22.881Z,4.72
2023-08-12T13:45:25.714Z,5.55
2023-08-12T13:47:28.693Z,3.33
2023-08-12T13:49:31.428Z,3.30
2023-08-12T13:51:34.341Z,3.20
2023-08-12T13:53:37.475Z,3.72
2023-08-12T13:55:39.915Z,3.13
2023-08-12T13:57:43.044Z,3.75
2023-08-12T13:59:46.053Z,4.38
2023-08-12T14:01:48.713Z,4.47
2023-08-12T14:03:51.620Z,4.60
2023-08-12T14:05:54.513Z,3.10
2023-08-12T14:07:57.383Z,4.72
2023-08-12T14:10:01.391Z,3.95
2023-08-12T14:12:04.909Z,4.15
2023-08-12T14:14:08.024Z,3.95
2023-08-12T14:16:11.031Z,3.78
2023-08-12T14:18:14.030Z,3.67
2023-08-12T14:20:17.121Z,4.13
2023-08-12T14:22:20.192Z,3.08
2023-08-12T14:24:23.098Z,4.25
2023-08-12T14:26:25.870Z,5.07
2023-08-12T14:28:28.425Z,5.13
2023-08-12T14:30:31.400Z,3.58
2023-08-12T14:32:34.034Z,2.70
2023-08-12T14:34:40.700Z,5.07
2023-08-12T14:36:44.038Z,3.10
2023-08-12T14:38:47.202Z,4.20
2023-08-12T14:40:51.019Z,4.28
2023-08-12T14:42:54.142Z,4.00
2023-08-12T14:44:56.949Z,4.97
2023-08-12T14:47:03.210Z,4.18
2023-08-12T14:51:08.747Z,4.43
2023-08-12T14:53:11.864Z,5.18
2023-08-12T14:55:14.610Z,3.22
2023-08-12T14:57:17.223Z,4.93
2023-08-12T14:59:20.264Z,3.67
2023-08-12T15:01:25.655Z,3.65
2023-08-12T15:03:28.367Z,3.55
2023-08-12T15:05:32.359Z,3.08
2023-08-12T15:07:35.088Z,3.53
2023-08-12T15:09:38.992Z,4.65
2023-08-12T15:11:41.686Z,4.28
2023-08-12T15:13:44.464Z,3.20
2023-08-12T15:15:48.435Z,4.28
2023-08-12T15:17:51.245Z,2.92
2023-08-12T15:19:54.837Z,4.05
2023-08-12T15:21:59.625Z,4.05
2023-08-12T15:24:02.500Z,6.00
2023-08-12T15:26:06.317Z,4.93
2023-08-12T15:28:09.174Z,4.45
2023-08-12T15:30:12.385Z,4.07
2023-08-12T15:32:15.425Z,3.45
2023-08-12T15:34:18.308Z,4.80
2023-08-12T15:36:21.527Z,3.78
2023-08-12T15:38:24.469Z,4.68
2023-08-12T15:40:27.043Z,5.63
2023-08-12T15:42:30.093Z,3.28
2023-08-12T15:44:32.954Z,4.53
2023-08-12T15:46:37.068Z,3.35
2023-08-12T15:48:39.895Z,3.72
2023-08-12T15:50:46.820Z,3.70
2023-08-12T15:52:49.984Z,4.18
2023-08-12T15:54:53.275Z,4.75
2023-08-12T15:56:58.169Z,3.95
2023-08-12T15:59:01.132Z,5.30
2023-08-12T16:01:04.686Z,3.88
2023-08-12T16:03:07.694Z,3.72
2023-08-12T16:05:10.817Z,4.78
2023-08-12T16:07:14.129Z,3.30
2023-08-12T16:09:19.194Z,5.93
2023-08-12T16:11:23.680Z,4.00
2023-08-12T16:13:27.086Z,4.82
2023-08-12T16:15:30.196Z,4.13
2023-08-12T16:17:32.736Z,4.13
2023-08-12T16:19:36.038Z,3.80
2023-08-12T16:21:39.165Z,5.55
2023-08-12T16:23:41.790Z,4.35
2023-08-12T16:25:45.501Z,5.38
2023-08-12T16:27:50.245Z,3.67
2023-08-12T16:29:52.967Z,4.15
2023-08-12T16:31:56.037Z,3.80
2023-08-12T16:33:58.971Z,4.70
2023-08-12T16:36:01.638Z,4.78
2023-08-12T16:38:05.611Z,5.00
2023-08-12T16:40:10.593Z,5.15
2023-08-12T16:42:13.812Z,4.15
2023-08-12T16:44:17.203Z,6.45
2023-08-12T16:46:20.082Z,4.07
2023-08-12T16:48:23.136Z,4.07
2023-08-12T16:50:25.941Z,4.80
2023-08-12T16:52:28.908Z,5.35
2023-08-12T16:54:31.935Z,5.78
2023-08-12T16:56:34.404Z,3.50
2023-08-12T16:58:37.949Z,3.83
2023-08-12T17:00:41.176Z,5.97
2023-08-12T17:02:44.501Z,3.33
2023-08-12T17:04:47.347Z,4.03
2023-08-12T17:06:50.710Z,3.70
2023-08-12T17:08:53.466Z,3.90
2023-08-12T17:10:58.192Z,6.20
2023-08-12T17:13:01.754Z,4.07
2023-08-12T17:15:05.244Z,5.22
2023-08-12T17:17:08.731Z,4.28
2023-08-12T17:19:11.842Z,4.75
2023-08-12T17:21:14.908Z,5.68
2023-08-12T17:23:17.944Z,3.60
2023-08-12T17:25:21.266Z,4.30
2023-08-12T17:27:24.555Z,3.75
2023-08-12T17:29:27.360Z,4.20
2023-08-12T17:31:30.181Z,3.28
2023-08-12T17:33:33.469Z,4.70
2023-08-12T17:35:36.433Z,4.55
2023-08-12T17:37:40.426Z,3.88
2023-08-12T17:39:43.347Z,4.25
2023-08-12T17:41:46.621Z,3.13
2023-08-12T17:43:50.392Z,4.82
2023-08-12T17:45:53.441Z,5.03
2023-08-12T17:47:58.817Z,4.88
2023-08-12T17:50:02.015Z,4.78
2023-08-12T17:52:05.593Z,3.72
2023-08-12T17:54:08.537Z,3.67
2023-08-12T17:56:12.493Z,4.45
2023-08-12T17:58:16.126Z,4.78
2023-08-12T18:00:19.026Z,4.63
2023-08-12T18:02:21.842Z,5.25
2023-08-12T18:04:24.837Z,5.53
2023-08-12T18:06:28.140Z,7.38
2023-08-12T18:08:31.537Z,8.25
2023-08-12T18:10:34.280Z,13.77
2023-08-12T18:12:37.112Z,14.32
2023-08-12T18:14:40.106Z,13.32
2023-08-12T18:16:43.344Z,11.73
2023-08-12T18:18:46.513Z,11.07
2023-08-12T18:20:49.616Z,10.00
2023-08-12T18:22:52.240Z,9.45
2023-08-12T18:24:55.085Z,8.73
2023-08-12T18:26:58.099Z,10.93
2023-08-12T18:29:01.043Z,11.00
2023-08-12T18:31:04.128Z,7.57
2023-08-12T18:33:07.529Z,6.00
2023-08-12T18:35:11.536Z,4.80
2023-08-12T18:37:14.820Z,5.85
2023-08-12T18:39:18.784Z,5.55
2023-08-12T18:41:21.609Z,7.50
2023-08-12T18:43:25.440Z,8.85
2023-08-12T18:45:30.664Z,12.88
2023-08-12T18:47:34.549Z,12.82
2023-08-12T18:49:37.656Z,14.32
2023-08-12T18:51:40.589Z,9.70
2023-08-12T18:53:43.815Z,10.32
2023-08-12T18:55:46.348Z,8.48
2023-08-12T18:57:50.664Z,9.88
2023-08-12T18:59:54.416Z,6.80
2023-08-12T19:01:58.920Z,6.28
2023-08-12T19:04:01.616Z,6.28
2023-08-12T19:06:05.643Z,5.88
2023-08-12T19:08:08.280Z,6.25
2023-08-12T19:10:12.034Z,6.82
2023-08-12T19:12:15.173Z,9.40
2023-08-12T19:14:18.256Z,10.65
2023-08-12T19:16:21.212Z,11.65
2023-08-12T19:18:25.557Z,10.02
2023-08-12T19:20:28.133Z,10.88
2023-08-12T19:22:31.396Z,7.45
2023-08-12T19:24:34.296Z,8.60
2023-08-12T19:26:37.770Z,8.48
2023-08-12T19:28:40.503Z,9.70
2023-08-12T19:30:43.960Z,8.45
2023-08-12T19:32:55.734Z,12.77
2023-08-12T19:34:58.670Z,12.45
2023-08-12T19:37:02.004Z,9.45
2023-08-12T19:39:05.439Z,11.75
2023-08-12T19:41:08.431Z,18.23
2023-08-12T19:43:11.389Z,15.10
2023-08-12T19:45:16.011Z,11.52
2023-08-12T19:47:20.428Z,9.23
2023-08-12T19:49:24.295Z,9.98
2023-08-12T19:51:27.446Z,7.70
2023-08-12T19:53:30.538Z,8.77
2023-08-12T19:55:34.312Z,7.60
2023-08-12T19:57:37.347Z,8.65
2023-08-12T19:59:40.587Z,10.75
2023-08-12T20:01:44.197Z,9.32
2023-08-12T20:03:47.436Z,8.13
2023-08-12T20:05:50.508Z,6.63
2023-08-12T20:07:54.000Z,9.68
2023-08-12T20:09:56.854Z,9.85
2023-08-12T20:12:00.047Z,10.48
2023-08-12T20:14:03.570Z,10.10
2023-08-12T20:16:06.573Z,7.93
2023-08-12T20:18:09.607Z,8.57
2023-08-12T20:20:15.483Z,10.13
2023-08-12T20:22:19.291Z,8.32
2023-08-12T20:24:23.125Z,6.97
2023-08-12T20:26:27.801Z,11.50
2023-08-12T20:28:31.095Z,8.15
2023-08-12T20:30:35.157Z,11.63
2023-08-12T20:32:40.189Z,9.18
2023-08-12T20:34:44.152Z,8.70
2023-08-12T20:36:47.423Z,11.02
2023-08-12T20:38:51.138Z,14.77
2023-08-12T20:40:54.317Z,29.10
2023-08-12T20:42:57.534Z,29.50
2023-08-12T20:45:00.503Z,26.58
2023-08-12T20:47:03.395Z,25.15
2023-08-12T20:49:06.149Z,13.90
2023-08-12T20:51:09.150Z,12.15
2023-08-12T20:53:12.366Z,10.35
2023-08-12T20:55:15.039Z,10.55
2023-08-12T20:57:18.905Z,10.73
2023-08-12T20:59:22.038Z,13.77
2023-08-12T21:01:25.151Z,9.93
2023-08-12T21:03:28.372Z,11.15
2023-08-12T21:05:31.961Z,7.43
2023-08-12T21:07:35.246Z,12.65
2023-08-12T21:09:37.896Z,7.15
2023-08-12T21:11:40.753Z,8.10
2023-08-12T21:13:43.451Z,8.25
2023-08-12T21:15:46.390Z,9.25
2023-08-12T21:17:49.611Z,7.43
2023-08-12T21:19:52.476Z,9.60
2023-08-12T21:21:55.622Z,9.82
2023-08-12T21:23:58.485Z,9.05
2023-08-12T21:26:01.622Z,7.70
2023-08-12T21:28:05.717Z,7.93
2023-08-12T21:30:10.619Z,6.93
2023-08-12T21:32:13.867Z,7.68
2023-08-12T21:34:16.884Z,9.82
2023-08-12T21:36:19.647Z,7.07
2023-08-12T21:38:22.740Z,8.98
2023-08-12T21:40:26.164Z,9.20
2023-08-12T21:42:29.048Z,8.75
2023-08-12T21:44:32.181Z,6.78
2023-08-12T21:46:36.013Z,6.55
2023-08-12T21:48:38.974Z,7.05
2023-08-12T21:50:42.564Z,7.75
2023-08-12T21:52:45.638Z,7.00
2023-08-12T21:54:49.418Z,6.80
2023-08-12T21:56:52.324Z,6.82
2023-08-12T21:58:56.442Z,6.53
2023-08-12T22:00:59.749Z,6.78
2023-08-12T22:03:02.450Z,6.68
2023-08-12T22:05:06.722Z,7.35
2023-08-12T22:07:09.897Z,8.93
2023-08-12T22:09:12.955Z,10.00
2023-08-12T22:11:16.220Z,8.60
2023-08-12T22:13:19.139Z,6.95
2023-08-12T22:15:21.754Z,7.03
2023-08-12T22:17:24.916Z,7.28
2023-08-12T22:19:27.519Z,7.90
2023-08-12T22:21:30.088Z,7.38
2023-08-12T22:23:33.223Z,9.32
2023-08-12T22:25:35.808Z,10.10
2023-08-12T22:27:38.818Z,6.93
2023-08-12T22:29:42.579Z,10.30
2023-08-12T22:31:45.460Z,8.38
2023-08-12T22:33:48.847Z,6.85
2023-08-12T22:35:52.052Z,8.35
2023-08-12T22:37:54.643Z,8.85
2023-08-12T22:39:57.326Z,6.80
2023-08-12T22:42:00.894Z,9.27
2023-08-12T22:44:03.721Z,8.52
2023-08-12T22:46:06.376Z,6.93
2023-08-12T22:48:09.310Z,10.00
2023-08-12T22:50:13.924Z,7.72
2023-08-12T22:52:16.813Z,7.07
2023-08-12T22:54:20.079Z,7.70
2023-08-12T22:56:22.899Z,6.60
2023-08-12T22:58:25.538Z,7.30
2023-08-12T23:00:28.597Z,7.47
2023-08-12T23:02:32.580Z,9.57
2023-08-12T23:04:35.242Z,7.93
2023-08-12T23:06:37.908Z,7.78
2023-08-12T23:08:40.815Z,7.85
2023-08-12T23:10:43.765Z,9.85
2023-08-12T23:12:46.728Z,8.20
2023-08-12T23:14:49.479Z,8.00
2023-08-12T23:16:52.645Z,6.38
2023-08-12T23:18:55.212Z,7.55
2023-08-12T23:20:57.819Z,6.40
2023-08-12T23:23:00.692Z,6.63
2023-08-12T23:25:03.791Z,6.13
2023-08-12T23:27:06.892Z,7.15
2023-08-12T23:29:09.675Z,7.35
2023-08-12T23:31:15.127Z,6.80
2023-08-12T23:33:17.868Z,6.85
2023-08-12T23:35:20.951Z,6.65
2023-08-12T23:37:24.073Z,8.15
2023-08-12T23:39:28.451Z,6.82
2023-08-12T23:41:32.506Z,6.75
2023-08-12T23:43:35.193Z,6.80
2023-08-12T23:45:38.624Z,7.03
2023-08-12T23:47:42.582Z,6.20
2023-08-12T23:49:45.308Z,7.35
2023-08-12T23:51:49.610Z,6.22
2023-08-12T23:53:52.947Z,7.38
2023-08-12T23:55:55.617Z,6.22
2023-08-12T23:57:58.600Z,7.18
